Time;durP1;ratioP1;P1;durP2;ratioP2;P2;SDS_P1;SDS_P2;PMS_P1;PMS_P2;Temp;Humidity;BMP_temperature;BMP_pressure;BME280_temperature;BME280_humidity;BME280_pressure;Samples;Min_cycle;Max_cycle;Signal;HPM_P1;HPM_P2
2021/12/18 00:02:02;;;;;;;;;;;7.30;98.50;;;;;;5136277;27;20313;-79
2021/12/18 00:04:28;;;;;;;;;;;7.30;98.50;;;;;;5119168;27;19934;-79
2021/12/18 00:06:55;;;;;;;;;;;7.30;98.60;;;;;;5136408;27;19915;-79
2021/12/18 00:09:21;;;;;;;;;;;7.20;98.50;;;;;;5136194;27;19923;-79
2021/12/18 00:11:48;;;;;;;;;;;7.20;98.50;;;;;;5102182;27;19923;-79
2021/12/18 00:14:14;;;;;;;;;;;7.10;98.50;;;;;;5102332;27;19921;-79
2021/12/18 00:16:40;;;;;;;;;;;7.10;98.50;;;;;;5136239;27;20004;-79
2021/12/18 00:19:06;;;;;;;;;;;7.10;98.50;;;;;;5118889;27;19971;-80
2021/12/18 00:21:31;;;;;;;;;;;7.10;98.50;;;;;;5118879;27;19922;-79
2021/12/18 00:23:57;;;;;;;;;;;7.10;98.50;;;;;;5135975;27;19929;-79
2021/12/18 00:26:22;;;;;;;;;;;7.10;98.50;;;;;;5118740;27;19915;-79
2021/12/18 00:28:48;;;;;;;;;;;7.10;98.50;;;;;;5136259;27;19974;-79
2021/12/18 00:31:14;;;;;;;;;;;7.00;98.50;;;;;;5101845;27;19919;-79
2021/12/18 00:33:39;;;;;;;;;;;7.00;98.40;;;;;;5118761;27;19915;-79
2021/12/18 00:36:05;;;;;;;;;;;7.00;98.40;;;;;;5118196;27;19957;-79
2021/12/18 00:38:31;;;;;;;;;;;7.00;98.40;;;;;;5135835;27;19916;-79
2021/12/18 00:41:13;;;;;;;;;;;7.00;98.50;;;;;;5135510;27;19926;-79
2021/12/18 00:46:24;;;;;;;;;;;6.90;98.50;;;;;;5135448;27;19926;-79
2021/12/18 00:48:50;;;;;;;;;;;6.80;98.40;;;;;;5135501;27;19915;-80
2021/12/18 00:51:16;;;;;;;;;;;6.80;98.40;;;;;;5118661;27;19915;-79
2021/12/18 00:53:41;;;;;;;;;;;6.80;98.40;;;;;;5118272;27;19915;-79
2021/12/18 00:56:07;;;;;;;;;;;6.80;98.50;;;;;;5135639;27;19919;-79
2021/12/18 00:58:32;;;;;;;;;;;6.80;98.50;;;;;;5118142;27;20444;-80
2021/12/18 01:00:58;;;;;;;;;;;6.80;98.50;;;;;;5135586;27;19955;-81
2021/12/18 01:03:24;;;;;;;;;;;6.80;98.50;;;;;;5101206;27;19964;-81
2021/12/18 01:05:50;;;;;;;;;;;6.90;98.50;;;;;;5117996;27;19915;-81
2021/12/18 01:08:16;;;;;;;;;;;6.90;98.50;;;;;;5135391;27;19963;-81
2021/12/18 01:13:11;;;;;;;;;;;6.90;98.50;;;;;;5135421;27;19919;-81
2021/12/18 01:15:43;;;;;;;;;;;6.80;98.40;;;;;;5135035;27;19944;-81
2021/12/18 01:23:37;;;;;;;;;;;6.80;98.30;;;;;;5135401;27;19967;-80
2021/12/18 01:26:04;;;;;;;;;;;6.80;98.30;;;;;;5134737;27;20379;-81
2021/12/18 01:28:29;;;;;;;;;;;6.80;98.20;;;;;;5135222;27;19919;-81
2021/12/18 01:30:55;;;;;;;;;;;6.70;98.20;;;;;;5118139;27;19951;-80
2021/12/18 01:33:21;;;;;;;;;;;6.70;98.20;;;;;;5135066;27;19919;-81
2021/12/18 01:35:47;;;;;;;;;;;6.60;98.10;;;;;;5134982;27;20018;-81
2021/12/18 01:38:12;;;;;;;;;;;6.70;98.10;;;;;;5117527;27;19919;-81
2021/12/18 01:40:38;;;;;;;;;;;6.60;98.10;;;;;;5132300;27;19963;-81
2021/12/18 01:53:24;;;;;;;;;;;6.60;98.20;;;;;;5134301;27;19973;-82
2021/12/18 01:55:52;;;;;;;;;;;6.60;98.20;;;;;;5134627;27;19915;-82
2021/12/18 01:58:21;;;;;;;;;;;6.60;98.20;;;;;;5117662;27;20390;-81
2021/12/18 02:00:47;;;;;;;;;;;6.60;98.20;;;;;;5134424;27;19915;-82
2021/12/18 02:03:13;;;;;;;;;;;6.60;98.20;;;;;;5134178;27;19916;-81
2021/12/18 02:05:39;;;;;;;;;;;6.60;98.20;;;;;;5116959;27;19915;-81
2021/12/18 02:08:05;;;;;;;;;;;6.60;98.20;;;;;;5117202;27;19919;-81
2021/12/18 02:10:42;;;;;;;;;;;6.60;98.30;;;;;;5116855;27;20401;-81
2021/12/18 02:14:05;;;;;;;;;;;6.60;98.30;;;;;;5134341;27;19926;-81
2021/12/18 02:21:13;;;;;;;;;;;6.60;98.30;;;;;;5134297;27;20254;-81
2021/12/18 02:23:38;;;;;;;;;;;6.60;98.30;;;;;;5133928;27;20006;-81
2021/12/18 02:26:05;;;;;;;;;;;6.60;98.30;;;;;;5133517;27;20011;-81
2021/12/18 02:28:30;;;;;;;;;;;6.60;98.30;;;;;;5116716;28;19926;-81
2021/12/18 02:30:56;;;;;;;;;;;6.60;98.30;;;;;;5116787;28;19915;-81
2021/12/18 02:33:22;;;;;;;;;;;6.60;98.30;;;;;;5133993;27;19938;-82
2021/12/18 02:35:50;;;;;;;;;;;6.60;98.30;;;;;;5134881;27;20259;-81
2021/12/18 02:38:20;;;;;;;;;;;6.70;98.40;;;;;;5116875;28;19971;-82
2021/12/18 02:41:14;;;;;;;;;;;6.60;98.30;;;;;;5131126;28;19923;-81
2021/12/18 02:43:40;;;;;;;;;;;6.60;98.30;;;;;;5116611;28;19919;-81
2021/12/18 02:46:07;;;;;;;;;;;6.70;98.40;;;;;;5133780;28;19919;-81
2021/12/18 02:48:33;;;;;;;;;;;6.70;98.40;;;;;;5116747;28;19927;-82
2021/12/18 02:50:59;;;;;;;;;;;6.70;98.40;;;;;;5133497;28;19915;-81
2021/12/18 02:53:25;;;;;;;;;;;6.70;98.40;;;;;;5133522;28;19915;-80
2021/12/18 02:55:55;;;;;;;;;;;6.70;98.40;;;;;;5133524;28;20389;-81
2021/12/18 02:58:21;;;;;;;;;;;6.80;98.40;;;;;;5133878;28;19916;-81
2021/12/18 03:00:46;;;;;;;;;;;6.80;98.40;;;;;;5136823;27;19915;-81
2021/12/18 03:03:14;;;;;;;;;;;6.80;98.40;;;;;;5137782;27;19916;-81
2021/12/18 03:05:48;;;;;;;;;;;6.80;98.40;;;;;;5137461;27;19915;-81
2021/12/18 03:08:20;;;;;;;;;;;6.70;98.30;;;;;;5120385;27;19963;-81
2021/12/18 03:26:51;;;;;;;;;;;6.80;98.40;;;;;;5137153;27;19919;-80
2021/12/18 03:29:16;;;;;;;;;;;6.80;98.40;;;;;;5137102;27;19922;-80
2021/12/18 03:31:42;;;;;;;;;;;6.80;98.40;;;;;;5136943;27;20282;-81
2021/12/18 03:34:07;;;;;;;;;;;6.80;98.40;;;;;;5136808;27;19968;-81
2021/12/18 03:36:33;;;;;;;;;;;6.80;98.40;;;;;;5119792;27;19915;-81
2021/12/18 03:39:00;;;;;;;;;;;6.80;98.40;;;;;;5136694;27;19915;-82
2021/12/18 03:41:26;;;;;;;;;;;6.80;98.50;;;;;;5102728;27;20006;-82
2021/12/18 03:43:51;;;;;;;;;;;6.80;98.50;;;;;;5119693;27;19962;-81
2021/12/18 03:46:17;;;;;;;;;;;6.90;98.50;;;;;;5119593;27;19965;-81
2021/12/18 03:48:42;;;;;;;;;;;6.80;98.50;;;;;;5119604;27;19987;-81
2021/12/18 03:51:08;;;;;;;;;;;6.90;98.50;;;;;;5119527;27;19915;-81
2021/12/18 03:53:34;;;;;;;;;;;6.90;98.50;;;;;;5136691;27;19915;-81
2021/12/18 03:56:00;;;;;;;;;;;6.90;98.50;;;;;;5136612;27;20314;-81
2021/12/18 03:58:25;;;;;;;;;;;6.90;98.50;;;;;;5136561;27;19941;-81
2021/12/18 04:00:51;;;;;;;;;;;6.90;98.50;;;;;;5136484;27;19919;-81
2021/12/18 04:03:17;;;;;;;;;;;6.90;98.50;;;;;;5136448;27;19915;-81
2021/12/18 04:05:42;;;;;;;;;;;7.00;98.50;;;;;;5137174;27;20022;-80
2021/12/18 04:08:11;;;;;;;;;;;7.00;98.50;;;;;;5119300;27;19968;-81
2021/12/18 04:10:37;;;;;;;;;;;7.00;98.50;;;;;;5135952;27;19976;-80
2021/12/18 04:13:04;;;;;;;;;;;7.00;98.50;;;;;;5136036;27;19968;-80
2021/12/18 04:15:29;;;;;;;;;;;7.00;98.50;;;;;;5137105;27;19916;-80
2021/12/18 04:17:55;;;;;;;;;;;7.00;98.50;;;;;;5136771;27;20309;-81
2021/12/18 04:20:21;;;;;;;;;;;7.00;98.50;;;;;;5136082;27;19923;-80
2021/12/18 04:22:46;;;;;;;;;;;7.00;98.50;;;;;;5119014;27;19923;-81
2021/12/18 04:25:12;;;;;;;;;;;7.00;98.50;;;;;;5118995;27;19915;-80
2021/12/18 04:27:37;;;;;;;;;;;7.00;98.40;;;;;;5136004;27;19930;-80
2021/12/18 04:30:03;;;;;;;;;;;7.00;98.50;;;;;;5135879;27;19915;-80
2021/12/18 04:32:29;;;;;;;;;;;7.00;98.50;;;;;;5136169;27;19915;-80
2021/12/18 04:34:54;;;;;;;;;;;7.00;98.50;;;;;;5102197;27;19915;-80
2021/12/18 04:37:20;;;;;;;;;;;7.00;98.50;;;;;;5136031;27;20358;-81
2021/12/18 04:39:46;;;;;;;;;;;7.00;98.50;;;;;;5136017;27;20371;-81
2021/12/18 04:42:12;;;;;;;;;;;7.00;98.50;;;;;;5135701;27;19916;-81
2021/12/18 04:44:38;;;;;;;;;;;7.00;98.50;;;;;;5135818;27;20025;-80
2021/12/18 04:47:03;;;;;;;;;;;7.00;98.50;;;;;;5119049;27;19994;-81
2021/12/18 04:49:29;;;;;;;;;;;7.00;98.50;;;;;;5135589;27;19915;-80
2021/12/18 04:51:54;;;;;;;;;;;7.00;98.50;;;;;;5135519;27;19922;-80
2021/12/18 04:54:20;;;;;;;;;;;7.00;98.50;;;;;;5118302;27;19922;-81
2021/12/18 04:56:46;;;;;;;;;;;7.00;98.50;;;;;;5135697;27;20280;-80
2021/12/18 04:59:12;;;;;;;;;;;7.00;98.50;;;;;;5101484;27;19951;-81
2021/12/18 05:01:39;;;;;;;;;;;7.10;98.50;;;;;;5135385;27;20010;-80
2021/12/18 05:04:08;;;;;;;;;;;7.00;98.60;;;;;;5135169;27;20006;-81
2021/12/18 05:06:36;;;;;;;;;;;7.10;98.50;;;;;;5135275;27;19954;-80
2021/12/18 05:09:02;;;;;;;;;;;7.10;98.50;;;;;;5135541;27;19915;-81
2021/12/18 05:11:28;;;;;;;;;;;7.00;98.50;;;;;;5118560;27;19926;-81
2021/12/18 05:13:54;;;;;;;;;;;7.00;98.50;;;;;;5135715;27;20270;-80
2021/12/18 05:16:19;;;;;;;;;;;7.10;98.50;;;;;;5134970;27;19977;-81
2021/12/18 05:18:45;;;;;;;;;;;7.00;98.60;;;;;;5118217;27;19915;-81
2021/12/18 05:21:10;;;;;;;;;;;7.00;98.60;;;;;;5100620;27;19941;-81
2021/12/18 05:23:36;;;;;;;;;;;7.00;98.50;;;;;;5134809;27;19915;-81
2021/12/18 05:26:02;;;;;;;;;;;7.00;98.50;;;;;;5117592;27;20005;-80
2021/12/18 05:28:27;;;;;;;;;;;7.10;98.50;;;;;;5117702;27;19967;-81
2021/12/18 05:30:53;;;;;;;;;;;7.00;98.50;;;;;;5135002;27;19923;-81
2021/12/18 05:33:19;;;;;;;;;;;7.00;98.60;;;;;;5100594;27;19926;-81
2021/12/18 05:35:44;;;;;;;;;;;7.10;98.60;;;;;;5134695;27;19915;-81
2021/12/18 05:38:10;;;;;;;;;;;7.00;98.60;;;;;;5134930;27;20267;-81
2021/12/18 05:40:40;;;;;;;;;;;7.00;98.60;;;;;;5134284;27;20450;-82
2021/12/18 05:43:07;;;;;;;;;;;7.10;98.50;;;;;;5134539;27;20006;-81
2021/12/18 05:45:32;;;;;;;;;;;7.10;98.60;;;;;;5134441;27;19970;-80
2021/12/18 05:47:58;;;;;;;;;;;7.00;98.60;;;;;;5117640;27;19916;-81
2021/12/18 05:50:28;;;;;;;;;;;7.10;98.60;;;;;;5117515;27;20009;-81
2021/12/18 05:52:55;;;;;;;;;;;7.00;98.50;;;;;;5117710;27;19915;-81
2021/12/18 05:55:23;;;;;;;;;;;7.00;98.50;;;;;;5134342;27;19916;-81
2021/12/18 05:57:49;;;;;;;;;;;7.00;98.50;;;;;;5117752;27;20266;-81
2021/12/18 06:00:14;;;;;;;;;;;7.00;98.60;;;;;;5117060;27;19915;-80
2021/12/18 06:02:40;;;;;;;;;;;7.00;98.60;;;;;;5134527;27;19915;-81
2021/12/18 06:05:07;;;;;;;;;;;7.00;98.60;;;;;;5117224;27;19924;-81
2021/12/18 06:07:51;;;;;;;;;;;7.00;98.60;;;;;;5117300;27;20362;-80
2021/12/18 06:10:17;;;;;;;;;;;7.00;98.60;;;;;;5133805;27;20325;-80
2021/12/18 06:12:42;;;;;;;;;;;7.00;98.60;;;;;;5133908;27;19977;-81
2021/12/18 06:15:08;;;;;;;;;;;7.10;98.60;;;;;;5116788;27;19972;-81
2021/12/18 06:17:33;;;;;;;;;;;7.00;98.60;;;;;;5134252;27;20275;-81
2021/12/18 06:19:59;;;;;;;;;;;7.10;98.60;;;;;;5116565;27;20358;-80
2021/12/18 06:22:24;;;;;;;;;;;7.10;98.60;;;;;;5133820;27;19958;-81
2021/12/18 06:24:50;;;;;;;;;;;7.10;98.60;;;;;;5116766;27;19923;-80
2021/12/18 06:27:15;;;;;;;;;;;7.10;98.60;;;;;;5116457;27;20422;-80
2021/12/18 06:29:42;;;;;;;;;;;7.10;98.60;;;;;;5116233;28;19915;-80
2021/12/18 06:32:08;;;;;;;;;;;7.10;98.60;;;;;;5131908;27;19919;-80
2021/12/18 06:34:33;;;;;;;;;;;7.10;98.60;;;;;;5131490;27;19996;-80
2021/12/18 06:36:59;;;;;;;;;;;7.10;98.60;;;;;;5133653;27;19919;-79
2021/12/18 06:39:24;;;;;;;;;;;7.10;98.60;;;;;;5103432;28;21217;-80
2021/12/18 06:41:50;;;;;;;;;;;7.20;98.60;;;;;;5101129;28;19919;-81
2021/12/18 06:44:16;;;;;;;;;;;7.20;98.60;;;;;;5095390;28;19960;-80
2021/12/18 06:46:41;;;;;;;;;;;7.10;98.60;;;;;;5132567;28;20018;-81
2021/12/18 06:49:09;;;;;;;;;;;7.20;98.60;;;;;;5132791;28;20286;-81
2021/12/18 06:51:35;;;;;;;;;;;7.20;98.60;;;;;;5132562;28;20271;-80
2021/12/18 06:54:00;;;;;;;;;;;7.20;98.60;;;;;;5115943;28;19922;-81
2021/12/18 06:56:26;;;;;;;;;;;7.20;98.60;;;;;;5133442;28;19980;-82
2021/12/18 06:58:52;;;;;;;;;;;7.20;98.60;;;;;;5115908;28;20359;-82
2021/12/18 07:01:17;;;;;;;;;;;7.20;98.60;;;;;;5132940;28;20014;-80
2021/12/18 07:03:43;;;;;;;;;;;7.20;98.60;;;;;;5115736;28;19923;-82
2021/12/18 07:06:08;;;;;;;;;;;7.30;98.60;;;;;;5115739;28;19927;-81
2021/12/18 07:08:34;;;;;;;;;;;7.30;98.70;;;;;;5092575;28;20013;-81
2021/12/18 07:10:59;;;;;;;;;;;7.30;98.70;;;;;;5097211;28;19924;-81
2021/12/18 07:13:27;;;;;;;;;;;7.30;98.70;;;;;;5084122;28;19958;-81
2021/12/18 07:15:53;;;;;;;;;;;7.30;98.70;;;;;;5114421;28;19915;-82
2021/12/18 07:18:18;;;;;;;;;;;7.40;98.80;;;;;;5115275;28;19922;-82
2021/12/18 07:20:44;;;;;;;;;;;7.30;98.70;;;;;;5097755;28;19919;-82
2021/12/18 07:23:09;;;;;;;;;;;7.40;98.70;;;;;;5116485;28;19930;-81
2021/12/18 07:25:35;;;;;;;;;;;7.50;98.70;;;;;;5103064;28;20325;-81
2021/12/18 07:28:00;;;;;;;;;;;7.50;98.70;;;;;;5097056;28;20003;-81
2021/12/18 07:30:27;;;;;;;;;;;7.50;98.70;;;;;;5099514;28;19916;-82
2021/12/18 07:32:53;;;;;;;;;;;7.40;98.70;;;;;;5101513;28;19968;-81
2021/12/18 07:35:18;;;;;;;;;;;7.40;98.70;;;;;;5116999;28;20294;-82
2021/12/18 07:37:44;;;;;;;;;;;7.50;98.80;;;;;;5096970;28;20010;-82
2021/12/18 07:40:10;;;;;;;;;;;7.50;98.80;;;;;;5101360;28;19939;-82
2021/12/18 07:42:36;;;;;;;;;;;7.50;98.80;;;;;;5118089;28;20004;-81
2021/12/18 07:45:02;;;;;;;;;;;7.50;98.90;;;;;;5099498;27;19932;-83
2021/12/18 07:47:28;;;;;;;;;;;7.50;98.90;;;;;;5102971;27;19921;-82
2021/12/18 07:49:53;;;;;;;;;;;7.60;98.80;;;;;;5124578;27;19922;-82
2021/12/18 07:52:19;;;;;;;;;;;7.60;98.80;;;;;;5106422;27;19960;-80
2021/12/18 07:54:44;;;;;;;;;;;7.60;98.90;;;;;;5105350;27;19965;-81
2021/12/18 07:57:10;;;;;;;;;;;7.60;98.80;;;;;;5103938;27;19924;-82
2021/12/18 07:59:36;;;;;;;;;;;7.70;98.80;;;;;;5120242;27;19919;-82
2021/12/18 08:02:03;;;;;;;;;;;7.70;98.80;;;;;;5089332;27;19984;-83
2021/12/18 08:04:28;;;;;;;;;;;7.70;98.80;;;;;;5102556;27;19923;-82
2021/12/18 08:06:54;;;;;;;;;;;7.70;98.80;;;;;;5100697;27;20382;-81
2021/12/18 08:09:19;;;;;;;;;;;7.80;98.80;;;;;;5102689;27;19916;-81
2021/12/18 08:11:45;;;;;;;;;;;7.70;98.80;;;;;;5087994;27;19922;-81
2021/12/18 08:14:11;;;;;;;;;;;7.80;98.80;;;;;;5085987;28;19923;-83
2021/12/18 08:16:36;;;;;;;;;;;7.80;98.80;;;;;;5121102;27;19924;-82
2021/12/18 08:19:02;;;;;;;;;;;7.80;98.90;;;;;;5080948;28;19915;-81
2021/12/18 08:21:30;;;;;;;;;;;7.80;98.80;;;;;;5098219;28;19919;-80
2021/12/18 08:23:56;;;;;;;;;;;7.90;98.90;;;;;;5098085;28;19915;-82
2021/12/18 08:26:22;;;;;;;;;;;7.80;98.80;;;;;;5098125;28;19965;-79
2021/12/18 08:28:47;;;;;;;;;;;7.90;98.80;;;;;;5097952;28;20363;-82
2021/12/18 08:31:13;;;;;;;;;;;7.90;98.90;;;;;;5098136;28;19922;-81
2021/12/18 08:33:39;;;;;;;;;;;7.90;98.90;;;;;;5097963;28;19919;-82
2021/12/18 08:36:04;;;;;;;;;;;7.90;98.90;;;;;;5115350;28;19959;-82
2021/12/18 08:38:30;;;;;;;;;;;8.00;98.90;;;;;;5081009;28;20371;-82
2021/12/18 08:40:56;;;;;;;;;;;8.00;98.90;;;;;;5097779;28;19927;-81
2021/12/18 08:43:21;;;;;;;;;;;8.00;98.90;;;;;;5097766;28;19958;-80
2021/12/18 08:45:47;;;;;;;;;;;8.00;98.90;;;;;;5097842;28;20336;-80
2021/12/18 08:48:13;;;;;;;;;;;8.00;98.90;;;;;;5081260;28;19922;-78
2021/12/18 08:50:38;;;;;;;;;;;8.00;98.90;;;;;;5097726;28;20316;-78
2021/12/18 08:53:04;;;;;;;;;;;8.00;98.90;;;;;;5080994;28;19916;-80
2021/12/18 08:55:29;;;;;;;;;;;8.00;98.80;;;;;;5097727;28;19915;-79
2021/12/18 08:57:55;;;;;;;;;;;8.10;98.80;;;;;;5096937;28;19985;-80
2021/12/18 09:00:22;;;;;;;;;;;8.10;98.80;;;;;;5114361;28;20286;-79
2021/12/18 09:02:51;;;;;;;;;;;8.10;98.90;;;;;;5097582;28;19998;-81
2021/12/18 09:05:17;;;;;;;;;;;8.10;98.80;;;;;;5097183;28;19920;-80
2021/12/18 09:07:42;;;;;;;;;;;8.10;98.90;;;;;;5097458;28;19915;-80
2021/12/18 09:10:08;;;;;;;;;;;8.10;98.90;;;;;;5114263;28;20005;-81
2021/12/18 09:12:34;;;;;;;;;;;8.10;98.90;;;;;;5097176;28;19922;-81
2021/12/18 09:15:00;;;;;;;;;;;8.10;98.80;;;;;;5097069;28;19923;-79
2021/12/18 09:17:25;;;;;;;;;;;8.10;98.80;;;;;;5080069;28;19919;-79
2021/12/18 09:19:51;;;;;;;;;;;8.10;98.90;;;;;;5097269;28;19966;-80
2021/12/18 09:22:17;;;;;;;;;;;8.20;98.80;;;;;;5114243;28;20363;-80
2021/12/18 09:24:43;;;;;;;;;;;8.20;98.90;;;;;;5097067;28;19919;-79
2021/12/18 09:27:08;;;;;;;;;;;8.20;98.80;;;;;;5113808;28;20291;-80
2021/12/18 09:29:34;;;;;;;;;;;8.20;98.80;;;;;;5096983;28;19922;-79
2021/12/18 09:32:00;;;;;;;;;;;8.20;98.80;;;;;;5113744;28;19915;-80
2021/12/18 09:34:27;;;;;;;;;;;8.20;98.80;;;;;;5080182;28;19915;-80
2021/12/18 09:36:53;;;;;;;;;;;8.20;98.80;;;;;;5097097;28;20012;-79
2021/12/18 09:39:19;;;;;;;;;;;8.30;98.80;;;;;;5096733;28;20429;-80
2021/12/18 09:41:48;;;;;;;;;;;8.20;98.80;;;;;;5079549;28;19919;-80
2021/12/18 09:44:14;;;;;;;;;;;8.30;98.80;;;;;;5099645;28;19915;-80
2021/12/18 09:46:40;;;;;;;;;;;8.30;98.80;;;;;;5114798;28;19926;-80
2021/12/18 09:49:06;;;;;;;;;;;8.30;98.70;;;;;;5096723;28;19939;-80
2021/12/18 09:51:32;;;;;;;;;;;8.30;98.70;;;;;;5113383;28;19923;-80
2021/12/18 09:53:58;;;;;;;;;;;8.30;98.70;;;;;;5096327;28;20380;-81
2021/12/18 09:56:25;;;;;;;;;;;8.30;98.60;;;;;;5096295;28;19916;-80
2021/12/18 09:58:50;;;;;;;;;;;8.30;98.60;;;;;;5113110;28;19951;-80
2021/12/18 10:01:16;;;;;;;;;;;8.30;98.50;;;;;;5113158;28;19961;-80
2021/12/18 10:03:43;;;;;;;;;;;8.30;98.50;;;;;;5096144;28;19915;-79
2021/12/18 10:06:28;;;;;;;;;;;8.30;98.50;;;;;;5113280;28;19924;-80
2021/12/18 10:08:53;;;;;;;;;;;8.30;98.50;;;;;;5095230;28;20375;-80
2021/12/18 10:11:19;;;;;;;;;;;8.30;98.50;;;;;;5096019;28;19915;-80
2021/12/18 10:13:51;;;;;;;;;;;8.30;98.50;;;;;;5112992;28;19916;-80
2021/12/18 10:16:16;;;;;;;;;;;8.30;98.50;;;;;;5113030;28;19915;-80
2021/12/18 10:18:42;;;;;;;;;;;8.30;98.50;;;;;;5113059;28;20276;-80
2021/12/18 10:21:12;;;;;;;;;;;8.30;98.50;;;;;;5096221;28;19927;-79
2021/12/18 10:23:39;;;;;;;;;;;8.30;98.60;;;;;;5095844;28;19919;-81
2021/12/18 10:26:05;;;;;;;;;;;8.30;98.50;;;;;;5095755;28;19927;-80
2021/12/18 10:28:44;;;;;;;;;;;8.30;98.50;;;;;;5112702;28;20305;-79
2021/12/18 10:31:10;;;;;;;;;;;8.30;98.50;;;;;;5095804;28;19916;-80
2021/12/18 10:33:36;;;;;;;;;;;8.30;98.50;;;;;;5095760;28;19922;-80
2021/12/18 10:36:02;;;;;;;;;;;8.30;98.50;;;;;;5112957;28;20007;-80
2021/12/18 10:38:38;;;;;;;;;;;8.30;98.50;;;;;;5112538;28;20390;-80
2021/12/18 10:41:18;;;;;;;;;;;8.30;98.50;;;;;;5112513;28;19997;-80
2021/12/18 10:43:55;;;;;;;;;;;8.30;98.50;;;;;;5095564;28;19916;-79
2021/12/18 10:46:20;;;;;;;;;;;8.30;98.50;;;;;;5095595;28;19927;-79
2021/12/18 10:48:55;;;;;;;;;;;8.30;98.50;;;;;;5112579;28;19915;-79
2021/12/18 10:51:21;;;;;;;;;;;8.30;98.50;;;;;;5095562;28;19915;-80
2021/12/18 10:53:47;;;;;;;;;;;8.30;98.50;;;;;;5095844;28;20484;-80
2021/12/18 10:56:13;;;;;;;;;;;8.30;98.40;;;;;;5078706;28;19919;-80
2021/12/18 10:58:40;;;;;;;;;;;8.30;98.40;;;;;;5095411;28;19967;-80
2021/12/18 11:01:07;;;;;;;;;;;8.30;98.40;;;;;;5112444;28;20425;-79
2021/12/18 11:03:34;;;;;;;;;;;8.30;98.40;;;;;;5112670;28;19938;-80
2021/12/18 11:06:18;;;;;;;;;;;8.30;98.40;;;;;;5095480;28;20321;-80
2021/12/18 11:08:52;;;;;;;;;;;8.40;98.40;;;;;;5112334;28;19916;-80
2021/12/18 11:14:03;;;;;;;;;;;8.40;98.40;;;;;;5098188;28;20249;-79
2021/12/18 11:16:29;;;;;;;;;;;8.40;98.30;;;;;;5095388;28;19916;-79
2021/12/18 11:18:55;;;;;;;;;;;8.40;98.30;;;;;;5112546;28;20347;-79
2021/12/18 11:21:25;;;;;;;;;;;8.40;98.30;;;;;;5098140;28;19970;-79
2021/12/18 11:23:50;;;;;;;;;;;8.40;98.30;;;;;;5116569;28;19927;-80
2021/12/18 11:26:16;;;;;;;;;;;8.40;98.30;;;;;;5116147;28;20385;-80
2021/12/18 11:28:43;;;;;;;;;;;8.40;98.30;;;;;;5082365;28;19937;-81
2021/12/18 11:31:09;;;;;;;;;;;8.40;98.30;;;;;;5099458;28;19984;-79
2021/12/18 11:33:34;;;;;;;;;;;8.40;98.30;;;;;;5099085;28;19973;-80
2021/12/18 11:36:03;;;;;;;;;;;8.40;98.30;;;;;;5116037;28;19915;-79
2021/12/18 11:38:30;;;;;;;;;;;8.40;98.30;;;;;;5082697;28;19915;-80
2021/12/18 11:40:55;;;;;;;;;;;8.50;98.30;;;;;;5098708;28;19964;-79
2021/12/18 11:43:37;;;;;;;;;;;8.50;98.30;;;;;;5081995;28;19920;-81
2021/12/18 11:46:23;;;;;;;;;;;8.50;98.30;;;;;;5098886;28;19968;-80
2021/12/18 11:48:53;;;;;;;;;;;8.50;98.30;;;;;;5115878;28;19916;-80
2021/12/18 11:51:19;;;;;;;;;;;8.50;98.30;;;;;;5099005;28;19915;-80
2021/12/18 11:53:44;;;;;;;;;;;8.50;98.20;;;;;;5115982;28;20429;-81
2021/12/18 11:56:10;;;;;;;;;;;8.50;98.20;;;;;;5098638;28;19976;-81
2021/12/18 11:58:41;;;;;;;;;;;8.50;98.10;;;;;;5115499;28;19915;-79
2021/12/18 12:01:13;;;;;;;;;;;8.50;98.00;;;;;;5098630;28;19975;-80
2021/12/18 12:03:53;;;;;;;;;;;8.60;98.00;;;;;;5098503;28;19923;-81
2021/12/18 12:06:29;;;;;;;;;;;8.50;97.90;;;;;;5098694;28;19968;-79
2021/12/18 12:09:21;;;;;;;;;;;8.50;97.90;;;;;;5115683;28;19939;-80
2021/12/18 12:11:53;;;;;;;;;;;8.50;97.80;;;;;;5098432;28;19915;-79
2021/12/18 12:14:20;;;;;;;;;;;8.50;97.80;;;;;;5098277;28;19915;-82
2021/12/18 12:16:46;;;;;;;;;;;8.50;97.80;;;;;;5115097;28;19966;-80
2021/12/18 12:19:13;;;;;;;;;;;8.60;97.70;;;;;;5115485;28;19962;-80
2021/12/18 12:21:52;;;;;;;;;;;8.50;97.70;;;;;;5098083;28;19916;-80
2021/12/18 12:24:19;;;;;;;;;;;8.50;97.60;;;;;;5115317;28;19923;-81
2021/12/18 12:26:45;;;;;;;;;;;8.50;97.60;;;;;;5115268;28;19939;-80
2021/12/18 12:29:13;;;;;;;;;;;8.50;97.60;;;;;;5081312;28;20371;-79
2021/12/18 12:31:53;;;;;;;;;;;8.50;97.60;;;;;;5114431;28;19916;-80
2021/12/18 12:34:27;;;;;;;;;;;8.60;97.30;;;;;;5098019;28;19916;-79
2021/12/18 12:36:58;;;;;;;;;;;8.50;97.30;;;;;;5114893;28;20089;-80
2021/12/18 12:39:25;;;;;;;;;;;8.50;97.30;;;;;;5081948;28;19938;-81
2021/12/18 12:41:52;;;;;;;;;;;8.50;97.30;;;;;;5097599;28;20397;-80
2021/12/18 12:44:32;;;;;;;;;;;8.50;97.30;;;;;;5114976;28;20002;-80
2021/12/18 12:47:17;;;;;;;;;;;8.50;97.30;;;;;;5115685;28;19919;-79
2021/12/18 12:49:44;;;;;;;;;;;8.50;97.40;;;;;;5097962;28;20263;-80
2021/12/18 12:52:11;;;;;;;;;;;8.50;97.30;;;;;;5114563;28;19923;-81
2021/12/18 12:54:55;;;;;;;;;;;8.40;97.20;;;;;;5097531;28;19919;-79
2021/12/18 12:57:21;;;;;;;;;;;8.40;97.20;;;;;;5097440;28;19974;-79
2021/12/18 12:59:47;;;;;;;;;;;8.40;97.30;;;;;;5114739;28;20340;-81
2021/12/18 13:02:13;;;;;;;;;;;8.40;97.30;;;;;;5097414;28;19916;-80
2021/12/18 13:04:39;;;;;;;;;;;8.40;97.20;;;;;;5114192;28;19973;-78
2021/12/18 13:07:05;;;;;;;;;;;8.40;97.00;;;;;;5097203;28;19915;-79
2021/12/18 13:09:32;;;;;;;;;;;8.40;97.00;;;;;;5114232;28;19920;-80
2021/12/18 13:12:05;;;;;;;;;;;8.40;97.00;;;;;;5114052;28;19919;-80
2021/12/18 13:14:37;;;;;;;;;;;8.40;97.00;;;;;;5114119;28;20394;-79
2021/12/18 13:17:19;;;;;;;;;;;8.40;97.00;;;;;;5080134;28;19964;-81
2021/12/18 13:19:53;;;;;;;;;;;8.40;97.00;;;;;;5097033;28;19964;-80
2021/12/18 13:22:22;;;;;;;;;;;8.40;96.90;;;;;;5096927;28;19973;-81
2021/12/18 13:25:07;;;;;;;;;;;8.40;96.90;;;;;;5114055;28;19986;-80
2021/12/18 13:27:33;;;;;;;;;;;8.40;96.90;;;;;;5114058;28;20006;-79
2021/12/18 13:30:14;;;;;;;;;;;8.40;97.00;;;;;;5096836;28;19915;-79
2021/12/18 13:32:49;;;;;;;;;;;8.40;97.00;;;;;;5096830;28;19916;-80
2021/12/18 13:35:15;;;;;;;;;;;8.40;97.00;;;;;;5113687;28;20340;-79
2021/12/18 13:37:41;;;;;;;;;;;8.40;96.90;;;;;;5079747;28;19998;-79
2021/12/18 13:40:14;;;;;;;;;;;8.30;96.80;;;;;;5096684;28;19922;-81
2021/12/18 13:42:40;;;;;;;;;;;8.30;96.80;;;;;;5096374;28;20078;-79
2021/12/18 13:45:06;;;;;;;;;;;8.30;96.80;;;;;;5112402;28;20356;-80
2021/12/18 13:47:31;;;;;;;;;;;8.30;96.70;;;;;;5096363;28;19920;-80
2021/12/18 13:50:03;;;;;;;;;;;8.30;96.80;;;;;;5113439;28;19926;-79
2021/12/18 13:52:33;;;;;;;;;;;8.20;96.80;;;;;;5096864;28;19919;-79
2021/12/18 13:54:58;;;;;;;;;;;8.20;96.80;;;;;;5096691;28;20252;-80
2021/12/18 13:57:24;;;;;;;;;;;8.20;96.80;;;;;;5096140;28;19960;-80
2021/12/18 13:59:57;;;;;;;;;;;8.20;96.90;;;;;;5113245;28;19916;-80
2021/12/18 14:02:22;;;;;;;;;;;8.20;97.00;;;;;;5113508;28;20366;-79
2021/12/18 14:04:48;;;;;;;;;;;8.10;96.90;;;;;;5096089;28;19978;-80
2021/12/18 14:07:14;;;;;;;;;;;8.20;97.00;;;;;;5096319;28;19974;-80
2021/12/18 14:09:41;;;;;;;;;;;8.10;96.90;;;;;;5096465;28;20348;-80
2021/12/18 14:12:10;;;;;;;;;;;8.10;96.90;;;;;;5113363;28;19923;-80
2021/12/18 14:14:37;;;;;;;;;;;8.10;96.90;;;;;;5113313;28;19915;-80
2021/12/18 14:17:03;;;;;;;;;;;8.10;97.00;;;;;;5095864;28;19915;-80
2021/12/18 14:19:31;;;;;;;;;;;8.10;97.00;;;;;;5112861;28;20416;-80
2021/12/18 14:21:57;;;;;;;;;;;8.10;97.00;;;;;;5112928;28;19922;-80
2021/12/18 14:24:22;;;;;;;;;;;8.10;97.00;;;;;;5112806;28;19916;-79
2021/12/18 14:26:57;;;;;;;;;;;8.00;97.00;;;;;;5112823;28;19922;-80
2021/12/18 14:29:23;;;;;;;;;;;8.10;97.00;;;;;;5112881;28;19916;-79
2021/12/18 14:31:53;;;;;;;;;;;8.10;97.10;;;;;;5095841;28;19919;-80
2021/12/18 14:34:26;;;;;;;;;;;8.10;97.10;;;;;;5113065;28;19916;-81
2021/12/18 14:36:56;;;;;;;;;;;8.10;97.20;;;;;;5095900;28;19922;-80
2021/12/18 14:39:27;;;;;;;;;;;8.10;97.00;;;;;;5095902;28;20002;-79
2021/12/18 14:42:01;;;;;;;;;;;8.10;96.90;;;;;;5112627;28;19919;-81
2021/12/18 14:44:27;;;;;;;;;;;8.10;96.90;;;;;;5112510;28;19925;-81
2021/12/18 14:47:06;;;;;;;;;;;8.00;96.90;;;;;;5095633;28;19915;-79
2021/12/18 14:49:32;;;;;;;;;;;8.00;97.00;;;;;;5112571;28;19916;-80
2021/12/18 14:52:02;;;;;;;;;;;8.00;97.10;;;;;;5095523;28;19927;-81
2021/12/18 14:54:27;;;;;;;;;;;8.00;97.00;;;;;;5112526;28;20490;-79
2021/12/18 14:57:13;;;;;;;;;;;8.00;97.00;;;;;;5115988;28;19923;-79
2021/12/18 14:59:38;;;;;;;;;;;8.00;97.00;;;;;;5116446;28;20225;-80
2021/12/18 15:02:04;;;;;;;;;;;7.90;97.10;;;;;;5082424;28;20438;-79
2021/12/18 15:04:29;;;;;;;;;;;7.90;97.10;;;;;;5082600;28;19915;-79
2021/12/18 15:06:56;;;;;;;;;;;7.90;97.00;;;;;;5082499;28;19916;-80
2021/12/18 15:09:24;;;;;;;;;;;7.90;96.90;;;;;;5116834;28;19915;-79
2021/12/18 15:11:50;;;;;;;;;;;7.80;96.90;;;;;;5099305;28;19924;-79
2021/12/18 15:14:19;;;;;;;;;;;7.80;97.00;;;;;;5099444;28;20056;-80
2021/12/18 15:16:46;;;;;;;;;;;7.70;97.00;;;;;;5099027;28;19916;-79
2021/12/18 15:19:12;;;;;;;;;;;7.70;97.10;;;;;;5116267;28;19941;-79